Time;durP1;ratioP1;P1;durP2;ratioP2;P2;SDS_P1;SDS_P2;PMS_P1;PMS_P2;Temp;Humidity;BMP_temperature;BMP_pressure;BME280_temperature;BME280_humidity;BME280_pressure;Samples;Min_cycle;Max_cycle;Signal;HPM_P1;HPM_P2
2023/06/24 00:02:23;;;;;;;;;;;;;;;26.07;44.76;102407.91;5066887;28;19912;-71
2023/06/24 00:04:49;;;;;;;;;;;;;;;26.06;45.03;102403.50;5035008;28;19917;-72
2023/06/24 00:07:14;;;;;;;;;;;;;;;26.06;45.01;102406.22;5059402;28;20140;-72
2023/06/24 00:09:39;;;;;;;;;;;;;;;26.05;45.04;102415.44;5070242;28;19913;-72
2023/06/24 00:12:05;;;;;;;;;;;;;;;26.04;45.00;102405.59;5048334;28;19921;-72
2023/06/24 00:14:30;;;;;;;;;;;;;;;26.05;44.88;102406.44;5067879;28;20386;-72
2023/06/24 00:16:56;;;;;;;;;;;;;;;26.05;44.78;102409.16;5062746;28;19925;-72
2023/06/24 00:19:22;;;;;;;;;;;;;;;26.02;44.83;102402.16;5041060;28;19913;-72
2023/06/24 00:21:53;;;;;;;;;;;;;;;26.03;44.90;102412.03;5073389;28;20491;-72
2023/06/24 00:24:19;;;;;;;;;;;;;;;26.02;44.91;102410.34;5048009;28;19917;-73
2023/06/24 00:26:47;;;;;;;;;;;;;;;26.01;44.92;102411.38;5046310;28;19913;-72
2023/06/24 00:29:13;;;;;;;;;;;;;;;26.01;44.69;102413.25;5068518;28;20322;-72
2023/06/24 00:31:38;;;;;;;;;;;;;;;26.00;44.91;102409.69;5051303;28;19913;-72
2023/06/24 00:34:04;;;;;;;;;;;;;;;26.00;44.78;102404.25;5040005;28;19923;-71
2023/06/24 00:36:31;;;;;;;;;;;;;;;26.00;44.80;102414.28;5059611;28;19912;-72
2023/06/24 00:39:01;;;;;;;;;;;;;;;25.99;44.88;102407.13;5061110;28;19920;-73
2023/06/24 00:41:26;;;;;;;;;;;;;;;25.98;44.71;102410.88;5069337;28;19951;-73
2023/06/24 00:43:52;;;;;;;;;;;;;;;25.98;44.86;102405.44;5066429;28;19917;-73
2023/06/24 00:46:19;;;;;;;;;;;;;;;25.96;44.76;102402.91;5043132;28;19932;-73
2023/06/24 00:48:44;;;;;;;;;;;;;;;25.97;44.82;102411.94;5071579;28;19916;-72
2023/06/24 00:51:09;;;;;;;;;;;;;;;25.96;44.64;102412.97;5062987;28;20457;-72
2023/06/24 00:53:35;;;;;;;;;;;;;;;25.95;44.60;102403.91;5064335;28;19921;-73
2023/06/24 00:56:02;;;;;;;;;;;;;;;25.95;44.78;102411.22;5066279;28;20004;-73
2023/06/24 00:58:30;;;;;;;;;;;;;;;25.93;44.68;102415.00;5055982;28;19916;-73
2023/06/24 01:00:57;;;;;;;;;;;;;;;25.93;44.85;102415.00;5042289;28;19916;-73
2023/06/24 01:03:24;;;;;;;;;;;;;;;25.93;44.74;102405.97;5054135;28;19913;-73
2023/06/24 01:05:50;;;;;;;;;;;;;;;25.92;44.75;102415.19;5061128;28;19917;-73
2023/06/24 01:08:15;;;;;;;;;;;;;;;25.91;44.74;102403.44;5055797;28;19921;-73
2023/06/24 01:10:41;;;;;;;;;;;;;;;25.91;44.73;102406.16;5069151;28;20285;-72
2023/06/24 01:13:06;;;;;;;;;;;;;;;25.89;44.79;102413.66;5040495;28;19920;-73
2023/06/24 01:15:31;;;;;;;;;;;;;;;25.90;44.56;102403.59;5073598;28;19928;-72
2023/06/24 01:17:56;;;;;;;;;;;;;;;25.89;44.61;102408.22;5051202;28;19917;-73
2023/06/24 01:20:33;;;;;;;;;;;;;;;25.89;44.56;102401.91;5064218;28;19917;-72
2023/06/24 01:23:02;;;;;;;;;;;;;;;25.88;44.60;102406.53;5068340;28;19921;-73
2023/06/24 01:25:46;;;;;;;;;;;;;;;25.88;44.69;102395.63;5066262;28;19913;-73
2023/06/24 01:28:17;;;;;;;;;;;;;;;25.88;44.62;102397.50;5060977;28;19999;-73
2023/06/24 01:31:01;;;;;;;;;;;;;;;25.88;44.59;102397.50;5066941;28;19934;-73
2023/06/24 01:33:29;;;;;;;;;;;;;;;25.87;44.58;102387.59;5058386;28;20003;-73
2023/06/24 01:35:54;;;;;;;;;;;;;;;25.86;44.41;102384.03;5050737;28;19928;-73
2023/06/24 01:38:22;;;;;;;;;;;;;;;25.86;44.52;102385.91;5066554;28;19917;-72
2023/06/24 01:40:47;;;;;;;;;;;;;;;25.86;44.44;102394.09;5038520;28;19913;-72
2023/06/24 01:43:13;;;;;;;;;;;;;;;25.85;44.58;102385.06;5054664;28;19923;-72
2023/06/24 01:45:48;;;;;;;;;;;;;;;25.84;44.57;102388.81;5058054;28;19919;-72
2023/06/24 01:48:14;;;;;;;;;;;;;;;25.85;44.48;102381.50;5064960;28;19920;-74
2023/06/24 01:50:42;;;;;;;;;;;;;;;25.83;44.42;102380.84;5051784;28;19913;-72
2023/06/24 01:53:08;;;;;;;;;;;;;;;25.83;44.47;102378.13;5048200;28;19928;-72
2023/06/24 01:55:33;;;;;;;;;;;;;;;25.83;44.34;102372.66;5060420;28;19913;-72
2023/06/24 01:57:58;;;;;;;;;;;;;;;25.83;44.51;102378.13;5051278;28;19938;-73
2023/06/24 02:00:24;;;;;;;;;;;;;;;25.82;44.47;102376.41;5043305;28;19916;-73
2023/06/24 02:02:49;;;;;;;;;;;;;;;25.82;44.55;102385.41;5048500;28;19917;-73
2023/06/24 02:05:14;;;;;;;;;;;;;;;25.82;44.47;102381.84;5068489;28;19945;-73
2023/06/24 02:07:40;;;;;;;;;;;;;;;25.80;44.29;102382.03;5035981;28;19967;-73
2023/06/24 02:10:06;;;;;;;;;;;;;;;25.80;44.25;102379.31;5073706;28;19927;-73
2023/06/24 02:12:31;;;;;;;;;;;;;;;25.80;44.38;102383.91;5061125;28;19913;-73
2023/06/24 02:14:56;;;;;;;;;;;;;;;25.80;44.33;102381.19;5041208;28;19921;-73
2023/06/24 02:17:21;;;;;;;;;;;;;;;25.78;44.30;102381.34;5068290;28;19919;-73
2023/06/24 02:19:47;;;;;;;;;;;;;;;25.78;44.43;102377.78;5063712;28;19913;-73
2023/06/24 02:22:12;;;;;;;;;;;;;;;25.78;44.36;102377.78;5062602;28;19913;-73
2023/06/24 02:24:38;;;;;;;;;;;;;;;25.77;44.17;102373.38;5048573;28;19952;-73
2023/06/24 02:27:03;;;;;;;;;;;;;;;25.76;44.33;102374.38;5063213;28;20007;-73
2023/06/24 02:29:28;;;;;;;;;;;;;;;25.74;44.37;102369.09;5057554;28;19939;-73
2023/06/24 02:31:53;;;;;;;;;;;;;;;25.74;44.39;102370.97;5071081;28;19913;-73
2023/06/24 02:34:19;;;;;;;;;;;;;;;25.74;44.32;102373.69;5038949;28;19912;-73
2023/06/24 02:36:44;;;;;;;;;;;;;;;25.72;44.38;102379.31;5050262;28;19980;-73
2023/06/24 02:39:09;;;;;;;;;;;;;;;25.71;44.31;102383.09;5064417;28;19991;-73
2023/06/24 02:41:36;;;;;;;;;;;;;;;25.71;44.34;102387.69;5057776;28;19928;-73
2023/06/24 02:44:01;;;;;;;;;;;;;;;25.69;44.46;102385.13;5069844;28;20386;-73
2023/06/24 02:46:29;;;;;;;;;;;;;;;25.69;44.19;102379.69;5060629;28;19972;-73
2023/06/24 02:48:54;;;;;;;;;;;;;;;25.68;44.23;102380.72;5058412;28;19916;-73
2023/06/24 02:51:19;;;;;;;;;;;;;;;25.67;44.47;102388.03;5063214;28;19913;-72
2023/06/24 02:53:45;;;;;;;;;;;;;;;25.68;44.11;102391.59;5049988;28;19916;-73
2023/06/24 02:56:11;;;;;;;;;;;;;;;25.66;44.36;102385.50;5040844;28;19936;-73
2023/06/24 02:58:38;;;;;;;;;;;;;;;25.65;44.28;102386.50;5053808;28;20011;-73
2023/06/24 03:01:03;;;;;;;;;;;;;;;25.65;44.12;102378.34;5041405;28;19913;-73
2023/06/24 03:03:28;;;;;;;;;;;;;;;25.64;44.25;102377.50;5062671;28;20011;-73
2023/06/24 03:05:54;;;;;;;;;;;;;;;25.63;44.29;102375.81;5066144;28;20358;-73
2023/06/24 03:08:19;;;;;;;;;;;;;;;25.63;44.25;102378.53;5054282;28;19920;-72
2023/06/24 03:10:44;;;;;;;;;;;;;;;25.62;44.11;102379.56;5067100;28;19916;-73
2023/06/24 03:13:09;;;;;;;;;;;;;;;25.61;44.18;102377.84;5041907;28;19912;-73
2023/06/24 03:15:35;;;;;;;;;;;;;;;25.60;44.05;102376.16;5044958;28;19929;-71
2023/06/24 03:18:00;;;;;;;;;;;;;;;25.61;44.05;102386.00;5065972;28;19971;-73
2023/06/24 03:20:26;;;;;;;;;;;;;;;25.61;44.20;102377.00;5065855;28;19917;-72
2023/06/24 03:22:52;;;;;;;;;;;;;;;25.60;44.26;102387.03;5056453;28;19917;-72
2023/06/24 03:25:17;;;;;;;;;;;;;;;25.59;44.07;102384.50;5067967;28;19912;-73
2023/06/24 03:27:42;;;;;;;;;;;;;;;25.59;44.24;102388.06;5062301;28;19916;-72
2023/06/24 03:30:08;;;;;;;;;;;;;;;25.59;44.03;102381.78;5059569;28;19912;-72
2023/06/24 03:32:35;;;;;;;;;;;;;;;25.58;44.00;102386.38;5057029;28;19912;-72
2023/06/24 03:35:00;;;;;;;;;;;;;;;25.58;44.04;102383.66;5054880;28;19917;-72
2023/06/24 03:37:25;;;;;;;;;;;;;;;25.59;44.21;102381.78;5068790;28;20042;-72
2023/06/24 03:39:50;;;;;;;;;;;;;;;25.56;44.18;102384.84;5062986;28;19913;-72
2023/06/24 03:42:15;;;;;;;;;;;;;;;25.56;43.93;102379.41;5060136;28;19924;-72
2023/06/24 03:44:41;;;;;;;;;;;;;;;25.56;44.16;102384.84;5063855;28;19912;-71
2023/06/24 03:47:06;;;;;;;;;;;;;;;25.56;44.14;102379.41;5063566;28;19917;-72
2023/06/24 03:49:31;;;;;;;;;;;;;;;25.55;44.13;102377.72;5060612;28;20018;-73
2023/06/24 03:51:56;;;;;;;;;;;;;;;25.56;44.01;102384.84;5066790;28;19913;-73
2023/06/24 03:54:21;;;;;;;;;;;;;;;25.54;43.95;102385.03;5066848;28;19917;-72
2023/06/24 03:56:47;;;;;;;;;;;;;;;25.54;44.03;102381.47;5059399;28;19967;-73
2023/06/24 03:59:12;;;;;;;;;;;;;;;25.53;44.08;102386.06;5076337;28;19962;-72
2023/06/24 04:01:37;;;;;;;;;;;;;;;25.53;44.03;102385.19;5062610;28;19921;-72
2023/06/24 04:04:03;;;;;;;;;;;;;;;25.53;44.15;102377.91;5066649;28;19962;-72
2023/06/24 04:06:28;;;;;;;;;;;;;;;25.52;43.92;102378.06;5053111;28;20042;-73
2023/06/24 04:08:53;;;;;;;;;;;;;;;25.52;43.89;102378.06;5062317;28;20395;-73
2023/06/24 04:11:18;;;;;;;;;;;;;;;25.51;44.10;102379.94;5069344;28;19924;-73
2023/06/24 04:13:44;;;;;;;;;;;;;;;25.51;43.83;102377.22;5064876;28;19936;-73
2023/06/24 04:16:10;;;;;;;;;;;;;;;25.50;43.98;102375.53;5064882;28;19925;-73
2023/06/24 04:18:37;;;;;;;;;;;;;;;25.50;43.85;102375.53;5066472;28;19948;-73
2023/06/24 04:21:02;;;;;;;;;;;;;;;25.50;43.81;102377.41;5070423;28;19935;-73
2023/06/24 04:23:27;;;;;;;;;;;;;;;25.50;44.00;102380.13;5058808;28;19913;-73
2023/06/24 04:25:54;;;;;;;;;;;;;;;25.49;44.18;102375.69;5041608;28;20377;-73
2023/06/24 04:28:19;;;;;;;;;;;;;;;25.49;43.96;102375.69;5065777;28;19943;-73
2023/06/24 04:30:44;;;;;;;;;;;;;;;25.48;44.08;102374.84;5059287;28;19917;-73
2023/06/24 04:33:10;;;;;;;;;;;;;;;25.47;43.94;102367.69;5072669;28;19913;-73
2023/06/24 04:35:35;;;;;;;;;;;;;;;25.47;44.13;102375.88;5058955;28;19924;-73
2023/06/24 04:38:00;;;;;;;;;;;;;;;25.47;44.01;102377.75;5066478;28;19916;-73
2023/06/24 04:40:25;;;;;;;;;;;;;;;25.46;44.11;102381.50;5066119;28;19920;-73
2023/06/24 04:42:50;;;;;;;;;;;;;;;25.47;44.07;102377.75;5065938;28;19916;-72
2023/06/24 04:45:16;;;;;;;;;;;;;;;25.45;43.92;102377.09;5047632;28;19923;-73
2023/06/24 04:47:41;;;;;;;;;;;;;;;25.45;44.07;102374.38;5068250;28;19917;-73
2023/06/24 04:50:09;;;;;;;;;;;;;;;25.44;44.05;102381.66;5035081;28;19917;-73
2023/06/24 04:52:34;;;;;;;;;;;;;;;25.43;43.95;102386.25;5065428;28;19913;-72
2023/06/24 04:54:59;;;;;;;;;;;;;;;25.43;44.00;102385.41;5070334;28;19913;-73
2023/06/24 04:57:28;;;;;;;;;;;;;;;25.43;44.13;102382.69;5053847;28;20378;-73
2023/06/24 04:59:53;;;;;;;;;;;;;;;25.42;44.13;102383.72;5060156;28;19971;-73
2023/06/24 05:02:19;;;;;;;;;;;;;;;25.41;44.01;102391.06;5058360;28;19936;-73
2023/06/24 05:04:44;;;;;;;;;;;;;;;25.41;44.19;102391.06;5064591;28;19999;-73
2023/06/24 05:07:09;;;;;;;;;;;;;;;25.41;44.18;102395.66;5068548;28;19913;-73
2023/06/24 05:09:37;;;;;;;;;;;;;;;25.41;43.88;102403.81;5063490;28;19920;-73
2023/06/24 05:12:03;;;;;;;;;;;;;;;25.41;44.27;102401.09;5066462;28;20378;-73
2023/06/24 05:14:28;;;;;;;;;;;;;;;25.39;44.10;102395.81;5048713;28;19920;-73
2023/06/24 05:16:53;;;;;;;;;;;;;;;25.39;44.15;102403.97;5062771;28;19944;-73
2023/06/24 05:19:18;;;;;;;;;;;;;;;25.39;44.20;102395.81;5060727;28;19962;-73
2023/06/24 05:21:44;;;;;;;;;;;;;;;25.38;44.20;102388.66;5072189;28;19916;-72
2023/06/24 05:24:09;;;;;;;;;;;;;;;25.39;44.23;102393.09;5056990;28;19920;-72
2023/06/24 05:26:34;;;;;;;;;;;;;;;25.37;44.15;102386.97;5059952;28;19913;-72
2023/06/24 05:28:59;;;;;;;;;;;;;;;25.37;44.29;102389.69;5063828;28;19917;-72
2023/06/24 05:31:25;;;;;;;;;;;;;;;25.36;44.32;102393.47;5059303;28;19913;-72
2023/06/24 05:33:50;;;;;;;;;;;;;;;25.36;44.28;102401.63;5071463;28;19932;-72
2023/06/24 05:36:15;;;;;;;;;;;;;;;25.36;44.28;102404.34;5050801;28;19916;-72
2023/06/24 05:38:40;;;;;;;;;;;;;;;25.36;44.20;102403.47;5062933;28;19913;-73
2023/06/24 05:41:05;;;;;;;;;;;;;;;25.35;44.39;102413.53;5064293;28;19917;-73
2023/06/24 05:43:31;;;;;;;;;;;;;;;25.34;44.31;102403.66;5049659;28;19920;-73
2023/06/24 05:45:56;;;;;;;;;;;;;;;25.33;44.26;102401.97;5058649;28;20328;-72
2023/06/24 05:48:21;;;;;;;;;;;;;;;25.33;44.19;102401.97;5073917;28;19917;-73
2023/06/24 05:50:46;;;;;;;;;;;;;;;25.34;44.30;102400.09;5062527;28;19917;-73
2023/06/24 05:53:11;;;;;;;;;;;;;;;25.33;44.41;102399.25;5064685;28;19912;-73
2023/06/24 05:55:37;;;;;;;;;;;;;;;25.34;44.35;102405.53;5066276;28;19916;-72
2023/06/24 05:58:02;;;;;;;;;;;;;;;25.33;44.36;102401.97;5056350;28;19913;-73
2023/06/24 06:00:27;;;;;;;;;;;;;;;25.34;44.35;102408.25;5056556;28;20388;-72
2023/06/24 06:02:52;;;;;;;;;;;;;;;25.33;44.18;102401.97;5059962;28;19917;-73
2023/06/24 06:05:17;;;;;;;;;;;;;;;25.34;44.43;102395.50;5063728;28;20370;-72
2023/06/24 06:07:43;;;;;;;;;;;;;;;25.33;44.31;102392.97;5067272;28;19921;-72
2023/06/24 06:10:09;;;;;;;;;;;;;;;25.34;44.42;102391.94;5054074;28;19917;-73
2023/06/24 06:12:34;;;;;;;;;;;;;;;25.33;44.22;102396.53;5059769;28;19913;-73
2023/06/24 06:14:59;;;;;;;;;;;;;;;25.34;44.18;102402.81;5050511;28;19959;-73
2023/06/24 06:17:24;;;;;;;;;;;;;;;25.33;44.26;102395.69;5052768;28;19999;-72
2023/06/24 06:19:49;;;;;;;;;;;;;;;25.33;44.23;102393.81;5060622;28;19917;-73
2023/06/24 06:22:15;;;;;;;;;;;;;;;25.32;44.35;102397.56;5071754;28;19963;-72
2023/06/24 06:24:40;;;;;;;;;;;;;;;25.33;44.26;102401.13;5056742;28;19913;-73
2023/06/24 06:27:09;;;;;;;;;;;;;;;25.33;44.26;102395.69;5069364;28;19944;-73
2023/06/24 06:29:34;;;;;;;;;;;;;;;25.31;44.31;102404.00;5062994;28;19927;-73
2023/06/24 06:31:59;;;;;;;;;;;;;;;25.32;44.41;102405.72;5062785;28;19956;-72
2023/06/24 06:34:24;;;;;;;;;;;;;;;25.32;44.21;102404.88;5066856;28;19916;-73
2023/06/24 06:36:49;;;;;;;;;;;;;;;25.32;44.42;102403.00;5066559;28;19916;-73
2023/06/24 06:39:15;;;;;;;;;;;;;;;25.32;44.37;102402.16;5058838;28;19917;-73
2023/06/24 06:41:40;;;;;;;;;;;;;;;25.31;44.41;102392.28;5063606;28;19924;-72
2023/06/24 06:44:05;;;;;;;;;;;;;;;25.31;44.42;102401.28;5066694;28;19917;-73
2023/06/24 06:46:30;;;;;;;;;;;;;;;25.31;44.29;102404.00;5055454;28;19970;-72
2023/06/24 06:48:56;;;;;;;;;;;;;;;25.30;44.48;102404.19;5073421;28;19920;-72
2023/06/24 06:51:21;;;;;;;;;;;;;;;25.30;44.35;102390.56;5060077;28;19987;-72
2023/06/24 06:53:46;;;;;;;;;;;;;;;25.29;44.34;102391.59;5048656;28;19923;-72
2023/06/24 06:56:18;;;;;;;;;;;;;;;25.28;44.45;102398.94;5066349;28;19917;-73
2023/06/24 06:58:43;;;;;;;;;;;;;;;25.28;44.45;102401.66;5043784;28;20348;-73
2023/06/24 07:01:08;;;;;;;;;;;;;;;25.28;44.34;102398.09;5066904;28;19917;-73
2023/06/24 07:03:34;;;;;;;;;;;;;;;25.27;44.45;102396.38;5060116;28;19913;-72
2023/06/24 07:05:59;;;;;;;;;;;;;;;25.27;44.51;102404.53;5061304;28;19914;-73
2023/06/24 07:08:24;;;;;;;;;;;;;;;25.26;44.22;102411.84;5045003;28;19917;-73
2023/06/24 07:10:49;;;;;;;;;;;;;;;25.26;44.35;102411.00;5069476;28;19992;-73
2023/06/24 07:13:14;;;;;;;;;;;;;;;25.26;44.37;102421.91;5057854;28;19959;-73
2023/06/24 07:15:40;;;;;;;;;;;;;;;25.24;44.45;102413.91;5073425;28;19925;-73
2023/06/24 07:18:05;;;;;;;;;;;;;;;25.24;44.34;102413.91;5061128;28;19951;-72
2023/06/24 07:20:30;;;;;;;;;;;;;;;25.24;44.40;102421.25;5043764;28;19939;-72
2023/06/24 07:22:55;;;;;;;;;;;;;;;25.24;44.41;102407.63;5069967;28;19956;-72
2023/06/24 07:25:20;;;;;;;;;;;;;;;25.24;44.41;102415.78;5054957;28;20003;-73
2023/06/24 07:27:46;;;;;;;;;;;;;;;25.24;44.50;102418.50;5065867;28;20353;-73
2023/06/24 07:30:11;;;;;;;;;;;;;;;25.22;44.60;102413.22;5065346;28;20408;-72
2023/06/24 07:32:36;;;;;;;;;;;;;;;25.24;44.62;102426.69;5068961;28;19943;-72
2023/06/24 07:35:01;;;;;;;;;;;;;;;25.23;44.49;102419.50;5068127;28;19913;-73
2023/06/24 07:37:26;;;;;;;;;;;;;;;25.23;44.45;102417.63;5071999;28;19967;-72
2023/06/24 07:39:52;;;;;;;;;;;;;;;25.23;44.48;102414.06;5061598;28;19921;-73
2023/06/24 07:42:18;;;;;;;;;;;;;;;25.22;44.33;102415.94;5052765;28;19916;-73
2023/06/24 07:44:47;;;;;;;;;;;;;;;25.23;44.42;102414.91;5069212;28;19979;-73
2023/06/24 07:47:12;;;;;;;;;;;;;;;25.22;44.51;102410.50;5052733;28;19916;-73
2023/06/24 07:49:37;;;;;;;;;;;;;;;25.23;44.51;102408.63;5076151;28;19916;-73
2023/06/24 07:52:03;;;;;;;;;;;;;;;25.22;44.43;102407.78;5061494;28;19917;-73
2023/06/24 07:54:28;;;;;;;;;;;;;;;25.22;44.52;102413.22;5071605;28;19920;-73
2023/06/24 07:56:53;;;;;;;;;;;;;;;25.22;44.48;102404.22;5068191;28;19935;-72
2023/06/24 07:59:18;;;;;;;;;;;;;;;25.23;44.34;102408.63;5066153;28;19996;-73
2023/06/24 08:01:43;;;;;;;;;;;;;;;25.22;44.34;102409.66;5065577;28;19913;-72
2023/06/24 08:04:09;;;;;;;;;;;;;;;25.23;44.59;102408.63;5068005;28;19917;-72
2023/06/24 08:06:34;;;;;;;;;;;;;;;25.22;44.49;102407.78;5053967;28;19958;-73
2023/06/24 08:08:59;;;;;;;;;;;;;;;25.23;44.40;102408.63;5068293;28;19956;-73
2023/06/24 08:11:24;;;;;;;;;;;;;;;25.22;44.41;102412.38;5073022;28;20385;-73
2023/06/24 08:13:49;;;;;;;;;;;;;;;25.23;44.27;102405.91;5056592;28;19913;-73
2023/06/24 08:16:15;;;;;;;;;;;;;;;25.22;44.46;102402.34;5058674;28;19925;-72
2023/06/24 08:18:41;;;;;;;;;;;;;;;25.22;44.35;102405.06;5064515;28;19920;-72
2023/06/24 08:21:06;;;;;;;;;;;;;;;25.22;44.43;102404.22;5054220;28;19912;-73
2023/06/24 08:23:31;;;;;;;;;;;;;;;25.22;44.55;102402.34;5058575;28;20331;-73
2023/06/24 08:25:56;;;;;;;;;;;;;;;25.22;44.36;102405.06;5064958;28;20350;-73
2023/06/24 08:28:21;;;;;;;;;;;;;;;25.22;44.42;102406.94;5067366;28;19924;-72
2023/06/24 08:30:47;;;;;;;;;;;;;;;25.21;44.25;102406.09;5067018;28;19921;-73
2023/06/24 08:33:12;;;;;;;;;;;;;;;25.23;44.55;102405.91;5068058;28;19913;-73
2023/06/24 08:35:37;;;;;;;;;;;;;;;25.23;44.48;102406.75;5061277;28;19913;-72
2023/06/24 08:38:02;;;;;;;;;;;;;;;25.22;44.43;102402.34;5054873;28;19935;-73
2023/06/24 08:40:27;;;;;;;;;;;;;;;25.22;44.42;102402.34;5060740;28;19940;-72
2023/06/24 08:42:54;;;;;;;;;;;;;;;25.23;44.37;102400.47;5054076;28;19912;-73
2023/06/24 08:45:19;;;;;;;;;;;;;;;25.23;44.18;102403.19;5050375;28;19959;-73
2023/06/24 08:47:45;;;;;;;;;;;;;;;25.23;44.51;102397.72;5039818;28;19917;-72
2023/06/24 08:50:15;;;;;;;;;;;;;;;25.23;44.40;102397.72;5058137;28;19971;-73
2023/06/24 08:52:45;;;;;;;;;;;;;;;25.22;44.37;102405.06;5043086;28;19916;-73
2023/06/24 08:55:10;;;;;;;;;;;;;;;25.23;44.34;102406.75;5065911;28;20004;-73
2023/06/24 08:57:35;;;;;;;;;;;;;;;25.23;44.24;102398.59;5065350;28;19924;-73
2023/06/24 09:00:01;;;;;;;;;;;;;;;25.23;44.19;102401.31;5050520;28;19916;-73
2023/06/24 09:02:26;;;;;;;;;;;;;;;25.24;44.30;102388.56;5062787;28;19920;-72
2023/06/24 09:04:52;;;;;;;;;;;;;;;25.23;44.36;102393.13;5069007;28;19912;-73
2023/06/24 09:07:25;;;;;;;;;;;;;;;25.23;44.48;102393.13;5062850;28;19913;-73
2023/06/24 09:09:50;;;;;;;;;;;;;;;25.24;44.32;102394.84;5048098;28;19916;-71
2023/06/24 09:12:15;;;;;;;;;;;;;;;25.25;44.30;102396.56;5069538;28;19974;-73
2023/06/24 09:14:40;;;;;;;;;;;;;;;25.25;44.47;102392.97;5056740;28;20035;-72
2023/06/24 09:17:06;;;;;;;;;;;;;;;25.26;44.37;102386.50;5060992;28;20016;-72
2023/06/24 09:19:32;;;;;;;;;;;;;;;25.26;44.28;102384.63;5050708;28;19913;-72
2023/06/24 09:22:01;;;;;;;;;;;;;;;25.26;44.45;102386.50;5063852;28;19924;-72
2023/06/24 09:24:36;;;;;;;;;;;;;;;25.27;44.47;102393.66;5069355;28;19921;-72
2023/06/24 09:27:01;;;;;;;;;;;;;;;25.26;44.31;102392.78;5053278;28;19917;-72
2023/06/24 09:29:27;;;;;;;;;;;;;;;25.27;44.38;102388.19;5061761;28;19956;-72
2023/06/24 09:31:52;;;;;;;;;;;;;;;25.28;44.45;102390.75;5050126;28;20009;-74
2023/06/24 09:34:18;;;;;;;;;;;;;;;25.28;44.44;102390.75;5061683;28;20366;-72
2023/06/24 09:36:44;;;;;;;;;;;;;;;25.28;44.45;102381.75;5064328;28;19935;-72
2023/06/24 09:39:10;;;;;;;;;;;;;;;25.28;44.51;102385.31;5058701;28;19919;-73
2023/06/24 09:41:36;;;;;;;;;;;;;;;25.28;44.49;102377.16;5038215;28;19917;-74
2023/06/24 09:44:01;;;;;;;;;;;;;;;25.30;44.58;102374.25;5074206;28;19919;-72
2023/06/24 09:46:27;;;;;;;;;;;;;;;25.30;44.65;102383.25;5061875;28;19968;-72
2023/06/24 09:48:53;;;;;;;;;;;;;;;25.31;44.66;102378.66;5061315;28;19964;-72
2023/06/24 09:51:18;;;;;;;;;;;;;;;25.31;44.51;102374.06;5070000;28;19919;-72
2023/06/24 09:53:44;;;;;;;;;;;;;;;25.31;44.41;102375.94;5061080;28;19913;-72
2023/06/24 09:56:09;;;;;;;;;;;;;;;25.31;44.59;102371.34;5063460;28;20319;-72
2023/06/24 09:58:35;;;;;;;;;;;;;;;25.33;44.54;102368.44;5048680;28;19920;-72
2023/06/24 10:01:04;;;;;;;;;;;;;;;25.32;44.67;102366.75;5066871;28;19920;-72
2023/06/24 10:03:30;;;;;;;;;;;;;;;25.33;44.60;102360.28;5048843;28;19913;-72
2023/06/24 10:05:55;;;;;;;;;;;;;;;25.34;44.54;102361.97;5055651;28;19976;-72
2023/06/24 10:08:20;;;;;;;;;;;;;;;25.34;44.53;102361.97;5039533;28;19925;-72
2023/06/24 10:10:45;;;;;;;;;;;;;;;25.35;44.53;102361.78;5050820;28;19932;-73
2023/06/24 10:13:11;;;;;;;;;;;;;;;25.35;44.47;102363.66;5066225;28;20382;-72
2023/06/24 10:15:36;;;;;;;;;;;;;;;25.36;44.52;102359.91;5058706;28;19928;-72
2023/06/24 10:18:02;;;;;;;;;;;;;;;25.36;44.67;102365.34;5052179;28;19913;-71
2023/06/24 10:20:28;;;;;;;;;;;;;;;25.37;44.57;102364.34;5061634;28;19908;-72
2023/06/24 10:22:53;;;;;;;;;;;;;;;25.37;44.56;102361.63;5046614;28;19913;-72
2023/06/24 10:25:18;;;;;;;;;;;;;;;25.38;44.54;102363.31;5065820;28;19913;-71
2023/06/24 10:27:44;;;;;;;;;;;;;;;25.39;44.54;102356.84;5067576;28;19921;-71
2023/06/24 10:30:16;;;;;;;;;;;;;;;25.39;44.67;102354.97;5058527;28;19952;-73
2023/06/24 10:32:44;;;;;;;;;;;;;;;25.39;44.82;102354.97;5070321;28;19984;-72
2023/06/24 10:35:23;;;;;;;;;;;;;;;25.40;44.69;102358.53;5060358;28;19920;-73
2023/06/24 10:38:00;;;;;;;;;;;;;;;25.42;44.56;102353.78;5064981;28;19948;-72
2023/06/24 10:40:36;;;;;;;;;;;;;;;25.43;44.65;102345.41;5065097;28;19912;-73
2023/06/24 10:43:01;;;;;;;;;;;;;;;25.44;44.71;102351.72;5055908;28;19940;-73
2023/06/24 10:45:26;;;;;;;;;;;;;;;25.45;44.74;102352.59;5072715;28;19932;-73
2023/06/24 10:47:52;;;;;;;;;;;;;;;25.46;44.69;102346.94;5059608;28;19974;-72
2023/06/24 10:50:21;;;;;;;;;;;;;;;25.46;44.54;102344.22;5047359;28;19959;-74
2023/06/24 10:52:47;;;;;;;;;;;;;;;25.48;44.63;102344.88;5064076;28;19917;-72
2023/06/24 10:55:18;;;;;;;;;;;;;;;25.50;44.77;102347.44;5036463;28;19917;-72
2023/06/24 10:57:44;;;;;;;;;;;;;;;25.50;44.70;102337.41;5045005;28;19924;-72
2023/06/24 11:00:10;;;;;;;;;;;;;;;25.52;44.97;102332.59;5052146;28;19913;-71
2023/06/24 11:02:36;;;;;;;;;;;;;;;25.54;44.97;102330.56;5057603;28;19952;-72
2023/06/24 11:05:02;;;;;;;;;;;;;;;25.55;44.98;102326.81;5046482;28;19935;-72
2023/06/24 11:07:31;;;;;;;;;;;;;;;25.56;44.90;102328.50;5066725;28;19917;-73
2023/06/24 11:09:58;;;;;;;;;;;;;;;25.59;44.90;102328.16;5054624;28;19923;-72
2023/06/24 11:12:30;;;;;;;;;;;;;;;25.61;44.72;102323.34;5072157;28;19979;-73
2023/06/24 11:15:01;;;;;;;;;;;;;;;25.63;44.80;102323.19;5038188;28;19913;-72
2023/06/24 11:17:26;;;;;;;;;;;;;;;25.65;44.63;102326.56;5050650;28;19927;-72
2023/06/24 11:19:52;;;;;;;;;;;;;;;25.67;44.91;102319.09;5064490;28;19917;-73
2023/06/24 11:22:17;;;;;;;;;;;;;;;25.68;44.73;102321.63;5065128;28;19912;-73
2023/06/24 11:24:42;;;;;;;;;;;;;;;25.69;44.88;102315.13;5060751;28;19983;-74
2023/06/24 11:27:08;;;;;;;;;;;;;;;25.72;44.90;102313.94;5050429;28;19914;-73
2023/06/24 11:29:33;;;;;;;;;;;;;;;25.73;44.80;102310.19;5061012;28;20346;-73
2023/06/24 11:31:59;;;;;;;;;;;;;;;25.76;44.76;102307.09;5059895;28;20461;-72
2023/06/24 11:34:24;;;;;;;;;;;;;;;25.78;44.74;102306.94;5067776;28;20389;-73
2023/06/24 11:36:49;;;;;;;;;;;;;;;25.80;44.96;102299.47;5052102;28;19920;-73
2023/06/24 11:39:22;;;;;;;;;;;;;;;25.81;44.86;102309.31;5069338;28;19974;-72
2023/06/24 11:41:47;;;;;;;;;;;;;;;25.83;44.83;102308.13;5038570;28;19971;-73
2023/06/24 11:44:12;;;;;;;;;;;;;;;25.85;44.84;102302.47;5047927;28;19916;-74
2023/06/24 11:46:37;;;;;;;;;;;;;;;25.88;44.73;102296.69;5067805;28;19913;-72
2023/06/24 11:49:04;;;;;;;;;;;;;;;25.90;44.74;102294.59;5041694;28;20293;-73
2023/06/24 11:51:29;;;;;;;;;;;;;;;25.92;44.91;102292.56;5061909;28;19920;-72
2023/06/24 11:53:58;;;;;;;;;;;;;;;25.94;44.85;102295.94;5065332;28;20493;-72
2023/06/24 11:56:33;;;;;;;;;;;;;;;25.97;44.78;102295.59;5063370;28;19913;-72
2023/06/24 11:58:58;;;;;;;;;;;;;;;25.99;44.83;102293.50;5059395;28;19917;-72
2023/06/24 12:01:29;;;;;;;;;;;;;;;26.02;44.72;102289.56;5070483;28;19913;-71
2023/06/24 12:03:55;;;;;;;;;;;;;;;26.03;44.89;102294.84;5052435;28;20263;-72
2023/06/24 12:06:20;;;;;;;;;;;;;;;26.05;44.67;102290.06;5072638;28;19924;-72
2023/06/24 12:08:45;;;;;;;;;;;;;;;26.07;44.77;102287.16;5061581;28;19921;-72
2023/06/24 12:11:10;;;;;;;;;;;;;;;26.07;44.88;102288.00;5057860;28;19919;-72
2023/06/24 12:13:35;;;;;;;;;;;;;;;26.09;44.90;102293.28;5038594;28;19922;-72
2023/06/24 12:16:01;;;;;;;;;;;;;;;26.08;44.76;102292.44;5062175;28;19925;-72
2023/06/24 12:18:26;;;;;;;;;;;;;;;26.08;44.92;102291.56;5063710;28;20336;-72
2023/06/24 12:20:51;;;;;;;;;;;;;;;26.08;44.87;102288.84;5067437;28;20430;-72
2023/06/24 12:23:17;;;;;;;;;;;;;;;26.09;44.87;102285.94;5068817;28;19920;-72
2023/06/24 12:25:42;;;;;;;;;;;;;;;26.10;44.70;102279.47;5061755;28;20003;-72
2023/06/24 12:28:07;;;;;;;;;;;;;;;26.12;44.81;102281.97;5073187;28;19916;-72
2023/06/24 12:30:32;;;;;;;;;;;;;;;26.13;44.87;102278.25;5060399;28;19913;-72